createdAt,value
2023-02-22T04:19:46.937Z,3.66
2023-02-22T04:22:14.354Z,3.68
2023-02-22T04:24:40.901Z,3.63
2023-02-22T04:27:07.428Z,3.48
2023-02-22T04:29:36.927Z,3.50
2023-02-22T04:32:06.728Z,3.57
2023-02-22T04:34:33.419Z,3.49
2023-02-22T04:37:00.050Z,3.59
2023-02-22T04:39:27.360Z,3.59
2023-02-22T04:41:54.150Z,3.49
2023-02-22T04:44:20.678Z,3.48
2023-02-22T04:46:47.285Z,3.45
2023-02-22T04:49:15.673Z,3.37
2023-02-22T04:51:43.707Z,3.25
2023-02-22T04:54:13.610Z,3.26
2023-02-22T04:56:44.714Z,3.31
2023-02-22T04:59:11.306Z,3.36
2023-02-22T05:01:39.973Z,3.34
2023-02-22T05:04:07.434Z,3.28
2023-02-22T05:06:34.272Z,3.32
2023-02-22T05:09:00.873Z,3.18
2023-02-22T05:11:27.436Z,3.07
2023-02-22T05:13:54.004Z,3.13
2023-02-22T05:16:20.549Z,3.08
2023-02-22T05:18:47.279Z,3.08
2023-02-22T05:21:13.958Z,3.13
2023-02-22T05:23:41.361Z,3.16
2023-02-22T05:26:09.973Z,3.25
2023-02-22T05:28:37.794Z,3.20
2023-02-22T05:31:04.499Z,3.26
2023-02-22T05:33:31.069Z,3.30
2023-02-22T05:35:57.876Z,3.19
2023-02-22T05:38:24.958Z,3.19
2023-02-22T05:40:51.754Z,3.21
2023-02-22T05:43:18.426Z,3.20
2023-02-22T05:45:45.009Z,3.18
2023-02-22T05:48:12.942Z,3.18
2023-02-22T05:50:39.589Z,3.30
2023-02-22T05:53:06.335Z,3.25
2023-02-22T05:55:33.052Z,3.31
2023-02-22T05:57:59.589Z,3.19
2023-02-22T06:00:29.375Z,3.23
2023-02-22T06:03:00.154Z,3.29
2023-02-22T06:05:27.308Z,3.08
2023-02-22T06:07:54.672Z,3.23
2023-02-22T06:10:21.504Z,3.25
2023-02-22T06:12:49.710Z,3.31
2023-02-22T06:15:17.135Z,3.19
2023-02-22T06:17:44.087Z,3.25
2023-02-22T06:20:12.747Z,3.25
2023-02-22T06:22:41.213Z,3.26
2023-02-22T06:25:09.330Z,3.30
2023-02-22T06:27:36.165Z,3.21
2023-02-22T06:30:02.774Z,3.23
2023-02-22T06:32:29.313Z,3.20
2023-02-22T06:34:56.700Z,3.24
2023-02-22T06:37:23.200Z,3.24
2023-02-22T06:39:49.775Z,3.28
2023-02-22T06:42:16.429Z,3.40
2023-02-22T06:44:43.068Z,3.55
2023-02-22T06:47:09.997Z,3.66
2023-02-22T06:49:36.528Z,3.77
2023-02-22T06:52:08.416Z,3.93
2023-02-22T06:54:36.284Z,4.03
2023-02-22T06:57:03.229Z,4.09
2023-02-22T06:59:29.713Z,4.28
2023-02-22T07:01:56.238Z,4.40
2023-02-22T07:04:22.908Z,4.39
2023-02-22T07:06:49.939Z,4.54
2023-02-22T07:09:18.098Z,4.64
2023-02-22T07:11:44.661Z,4.80
2023-02-22T07:14:11.214Z,4.84
2023-02-22T07:16:37.868Z,4.99
2023-02-22T07:19:04.411Z,5.14
2023-02-22T07:21:31.079Z,5.28
2023-02-22T07:23:59.134Z,5.38
2023-02-22T07:26:27.171Z,5.52
2023-02-22T07:28:53.935Z,5.60
2023-02-22T07:31:20.566Z,5.84
2023-02-22T07:33:48.122Z,5.94
2023-02-22T07:36:17.812Z,6.14
2023-02-22T07:38:46.274Z,6.35
2023-02-22T07:41:13.236Z,6.58
2023-02-22T07:43:39.807Z,6.79
2023-02-22T07:46:06.442Z,7.10
2023-02-22T07:48:33.083Z,7.56
2023-02-22T07:50:59.902Z,8.06
2023-02-22T07:53:30.238Z,8.29
2023-02-22T07:56:01.941Z,8.83
2023-02-22T07:58:30.393Z,9.41
2023-02-22T08:00:57.438Z,10.23
2023-02-22T08:03:26.473Z,11.78
2023-02-22T08:05:56.164Z,13.25
2023-02-22T08:08:23.342Z,13.94
2023-02-22T08:10:50.982Z,13.37
2023-02-22T08:13:18.828Z,13.87
2023-02-22T08:15:47.095Z,14.35
2023-02-22T08:18:16.310Z,14.37
2023-02-22T08:20:44.443Z,14.69
2023-02-22T08:23:14.183Z,15.29
2023-02-22T08:25:41.740Z,15.45
2023-02-22T08:28:15.062Z,12.41
2023-02-22T08:30:45.341Z,10.93
2023-02-22T08:33:15.812Z,11.10
2023-02-22T08:35:42.857Z,12.87
2023-02-22T08:38:17.511Z,13.99
2023-02-22T08:40:44.222Z,14.02
2023-02-22T08:43:10.712Z,14.54
2023-02-22T08:45:37.321Z,16.33
2023-02-22T08:48:04.102Z,17.02
2023-02-22T08:50:33.690Z,16.58
2023-02-22T08:53:02.233Z,17.38
2023-02-22T08:55:32.155Z,17.47
2023-02-22T08:58:01.177Z,18.81
2023-02-22T09:00:29.562Z,21.08
2023-02-22T09:02:59.758Z,22.13
2023-02-22T09:05:26.802Z,20.55
2023-02-22T09:07:53.415Z,22.14
2023-02-22T09:10:26.526Z,23.37
2023-02-22T09:12:57.249Z,22.26
2023-02-22T09:15:25.147Z,18.14
2023-02-22T09:17:52.443Z,20.95
2023-02-22T09:20:21.145Z,22.81
2023-02-22T09:22:49.029Z,24.27
2023-02-22T09:25:17.516Z,23.66
2023-02-22T09:27:47.846Z,22.87
2023-02-22T09:30:34.667Z,22.55
2023-02-22T09:33:06.084Z,22.48
2023-02-22T09:35:36.126Z,22.37
2023-02-22T09:38:06.134Z,20.59
2023-02-22T09:40:40.926Z,17.28
2023-02-22T09:43:45.052Z,17.27
2023-02-22T09:46:34.680Z,19.40
2023-02-22T09:49:07.059Z,16.89
2023-02-22T09:51:41.762Z,18.02
2023-02-22T09:54:21.593Z,18.62
2023-02-22T09:56:52.858Z,18.63
2023-02-22T09:59:27.598Z,19.33
2023-02-22T10:02:00.675Z,20.34
2023-02-22T10:04:41.273Z,20.28
2023-02-22T10:07:20.299Z,19.40
2023-02-22T10:09:49.736Z,19.29
2023-02-22T10:12:30.035Z,18.61
2023-02-22T10:15:21.320Z,21.07
2023-02-22T10:18:17.424Z,20.96
2023-02-22T10:20:55.977Z,14.88
2023-02-22T10:23:32.475Z,14.24
2023-02-22T10:26:14.451Z,14.43
2023-02-22T10:28:55.299Z,15.04
2023-02-22T10:31:30.307Z,14.97
2023-02-22T10:34:02.070Z,14.63
2023-02-22T10:36:29.134Z,14.71
2023-02-22T10:39:02.155Z,15.26
2023-02-22T10:41:33.110Z,15.29
2023-02-22T10:44:02.798Z,14.57
2023-02-22T10:46:31.906Z,14.83
2023-02-22T10:49:07.365Z,14.97
2023-02-22T10:51:34.371Z,14.43
2023-02-22T10:54:24.117Z,15.17
2023-02-22T10:56:54.860Z,15.96
2023-02-22T10:59:36.741Z,15.69
2023-02-22T11:02:15.512Z,16.05
2023-02-22T11:04:46.675Z,16.45
2023-02-22T11:07:33.398Z,16.15
2023-02-22T11:10:06.070Z,16.30
2023-02-22T11:12:37.464Z,16.37
2023-02-22T11:15:19.150Z,16.21
2023-02-22T11:17:49.675Z,15.92
2023-02-22T11:20:25.322Z,14.44
2023-02-22T11:22:58.253Z,15.22
2023-02-22T11:25:27.845Z,14.72
2023-02-22T11:27:55.124Z,15.26
2023-02-22T11:30:24.630Z,15.29
2023-02-22T11:33:16.006Z,14.83
2023-02-22T11:35:55.316Z,14.92
2023-02-22T11:38:25.935Z,14.57
2023-02-22T11:41:08.045Z,14.87
2023-02-22T11:43:35.001Z,15.21
2023-02-22T11:46:11.411Z,15.18
2023-02-22T11:48:44.320Z,15.41
2023-02-22T11:51:26.735Z,16.27
2023-02-22T11:54:31.384Z,16.70
2023-02-22T11:57:23.375Z,17.33
2023-02-22T12:00:24.835Z,15.46
2023-02-22T12:03:20.812Z,16.39
2023-02-22T12:06:01.959Z,16.66
2023-02-22T12:08:45.376Z,15.82
2023-02-22T12:11:31.736Z,15.65
2023-02-22T12:14:05.529Z,15.96
2023-02-22T12:16:45.664Z,16.96
2023-02-22T12:19:22.030Z,21.08
2023-02-22T12:21:56.917Z,23.06
2023-02-22T12:24:44.377Z,29.32
2023-02-22T12:27:36.300Z,33.78
2023-02-22T12:30:24.770Z,34.76
2023-02-22T12:32:54.424Z,34.01
2023-02-22T12:35:25.526Z,37.01
2023-02-22T12:38:12.201Z,36.39
2023-02-22T12:40:53.874Z,38.03
2023-02-22T12:43:27.308Z,38.78
2023-02-22T12:46:16.023Z,35.96
2023-02-22T12:48:45.892Z,29.64
2023-02-22T12:51:38.833Z,31.13
2023-02-22T12:54:15.954Z,32.22
2023-02-22T12:56:46.336Z,34.60
2023-02-22T12:59:25.968Z,37.17
2023-02-22T13:01:59.687Z,35.35
2023-02-22T13:04:26.579Z,33.26
2023-02-22T13:07:05.290Z,31.47
2023-02-22T13:09:41.907Z,28.95
2023-02-22T13:12:23.684Z,27.26
2023-02-22T13:15:17.030Z,28.86
2023-02-22T13:18:01.279Z,32.30
2023-02-22T13:20:35.481Z,37.09
2023-02-22T13:23:22.871Z,37.89
2023-02-22T13:26:11.982Z,36.96
2023-02-22T13:29:05.553Z,36.96
2023-02-22T13:31:40.939Z,37.95
2023-02-22T13:34:22.671Z,38.37
2023-02-22T13:37:10.481Z,36.77
2023-02-22T13:39:39.984Z,28.21
2023-02-22T13:42:31.458Z,25.22
2023-02-22T13:45:09.796Z,23.40
2023-02-22T13:48:04.310Z,23.07
2023-02-22T13:50:54.557Z,22.00
2023-02-22T13:53:32.916Z,22.05
2023-02-22T13:56:00.835Z,26.53
2023-02-22T13:58:27.725Z,30.49
2023-02-22T14:00:59.887Z,28.15
2023-02-22T14:03:40.334Z,25.74
2023-02-22T14:06:09.732Z,25.39
2023-02-22T14:08:36.186Z,27.21
2023-02-22T14:11:26.798Z,28.96
2023-02-22T14:13:55.093Z,30.14
2023-02-22T14:16:24.880Z,30.17
2023-02-22T14:19:23.727Z,30.62
2023-02-22T14:22:04.444Z,28.26
2023-02-22T14:24:43.329Z,24.58
2023-02-22T14:27:11.348Z,22.99
2023-02-22T14:29:38.299Z,22.32
2023-02-22T14:32:14.994Z,21.34
2023-02-22T14:34:54.434Z,20.62
2023-02-22T14:37:25.221Z,20.01
2023-02-22T14:40:12.653Z,19.56
2023-02-22T14:42:44.551Z,19.18
2023-02-22T14:45:29.738Z,19.04
2023-02-22T14:48:15.226Z,19.38
2023-02-22T14:50:44.757Z,19.30
2023-02-22T14:53:20.435Z,18.90
2023-02-22T14:55:52.335Z,18.52
2023-02-22T14:58:27.710Z,18.36
2023-02-22T15:00:56.740Z,18.33
2023-02-22T15:03:41.388Z,18.21
2023-02-22T15:06:15.606Z,17.97
2023-02-22T15:08:48.457Z,17.94
2023-02-22T15:11:30.955Z,17.91
2023-02-22T15:13:58.597Z,17.88
2023-02-22T15:16:27.445Z,17.69
2023-02-22T15:18:57.168Z,17.45
2023-02-22T15:21:26.305Z,17.23
2023-02-22T15:23:55.458Z,17.19
2023-02-22T15:26:29.603Z,17.11
2023-02-22T15:28:58.246Z,16.94
2023-02-22T15:31:33.819Z,16.83
2023-02-22T15:34:15.789Z,16.70
2023-02-22T15:36:43.658Z,16.58
2023-02-22T15:39:20.227Z,16.51
2023-02-22T15:41:46.704Z,16.34
2023-02-22T15:44:23.265Z,16.08
2023-02-22T15:46:54.337Z,16.02
2023-02-22T15:49:23.380Z,15.88
2023-02-22T15:52:07.380Z,15.86
2023-02-22T15:54:40.732Z,15.63
2023-02-22T15:57:07.468Z,15.39
2023-02-22T15:59:43.425Z,15.33
2023-02-22T16:02:27.955Z,15.33
2023-02-22T16:05:01.904Z,15.29
2023-02-22T16:07:28.881Z,15.15
2023-02-22T16:09:55.996Z,15.12
2023-02-22T16:12:22.426Z,14.95
2023-02-22T16:14:49.964Z,14.95
2023-02-22T16:17:29.554Z,14.86
2023-02-22T16:20:00.702Z,14.87
2023-02-22T16:22:35.955Z,14.80
2023-02-22T16:25:17.858Z,14.62
2023-02-22T16:27:50.691Z,14.50
2023-02-22T16:30:36.207Z,14.50
2023-02-22T16:33:13.673Z,14.41
2023-02-22T16:35:40.656Z,14.37
2023-02-22T16:38:16.949Z,14.30
2023-02-22T16:40:55.660Z,14.21
2023-02-22T16:43:24.961Z,14.14
2023-02-22T16:45:53.214Z,14.01
2023-02-22T16:48:29.858Z,14.09
2023-02-22T16:51:00.667Z,14.06
2023-02-22T16:53:32.014Z,13.96
2023-02-22T16:56:04.043Z,13.96
2023-02-22T16:58:34.405Z,13.78
2023-02-22T17:01:01.010Z,13.79
2023-02-22T17:03:27.620Z,13.87
2023-02-22T17:05:54.278Z,13.80
2023-02-22T17:08:22.803Z,13.84
2023-02-22T17:10:51.506Z,13.78
2023-02-22T17:13:26.975Z,13.70
2023-02-22T17:15:57.117Z,13.73
2023-02-22T17:18:28.353Z,13.68
2023-02-22T17:20:55.072Z,13.54
2023-02-22T17:23:23.889Z,13.58
2023-02-22T17:25:56.269Z,13.38
2023-02-22T17:28:24.552Z,13.57
2023-02-22T17:30:52.182Z,13.52
2023-02-22T17:33:22.278Z,13.43
2023-02-22T17:35:48.816Z,13.17
2023-02-22T17:38:18.561Z,13.10
2023-02-22T17:40:51.953Z,13.12
2023-02-22T17:43:19.372Z,13.42
2023-02-22T17:45:46.275Z,13.49
2023-02-22T17:48:13.430Z,13.37
2023-02-22T17:50:41.040Z,13.31
2023-02-22T17:53:10.822Z,13.29
2023-02-22T17:55:39.083Z,13.20
2023-02-22T17:58:06.030Z,13.21
2023-02-22T18:00:36.266Z,13.18
2023-02-22T18:03:11.234Z,13.11
2023-02-22T18:05:59.279Z,12.84
2023-02-22T18:08:55.533Z,12.98
2023-02-22T18:11:43.305Z,12.85
2023-02-22T18:14:30.147Z,12.84
2023-02-22T18:17:17.050Z,12.86
2023-02-22T18:20:11.668Z,12.76
2023-02-22T18:22:59.158Z,12.68
2023-02-22T18:26:07.591Z,12.55
2023-02-22T18:28:56.354Z,12.47
2023-02-22T18:31:45.329Z,12.41
2023-02-22T18:34:33.011Z,12.42
2023-02-22T18:37:20.399Z,12.40
2023-02-22T18:40:10.571Z,12.37
2023-02-22T18:42:57.522Z,12.36
2023-02-22T18:45:44.416Z,12.32
2023-02-22T18:48:32.716Z,12.33
2023-02-22T18:51:19.678Z,12.27
2023-02-22T18:54:06.533Z,12.05
2023-02-22T18:56:53.353Z,12.15
2023-02-22T18:59:40.831Z,12.16
2023-02-22T19:02:27.953Z,12.08
2023-02-22T19:05:17.278Z,12.02
2023-02-22T19:08:04.356Z,12.02
2023-02-22T19:10:51.229Z,11.96
2023-02-22T19:13:38.497Z,11.96
2023-02-22T19:16:26.821Z,11.93
2023-02-22T19:19:14.869Z,11.78
2023-02-22T19:22:02.882Z,11.95
2023-02-22T19:24:50.351Z,11.88
2023-02-22T19:27:37.235Z,11.96
2023-02-22T19:30:24.924Z,11.89
2023-02-22T19:33:11.897Z,11.93
2023-02-22T19:36:01.703Z,11.82
2023-02-22T19:38:48.988Z,11.61
2023-02-22T19:41:36.224Z,11.49
2023-02-22T19:44:24.448Z,11.55
2023-02-22T19:47:11.250Z,11.58
2023-02-22T19:49:59.833Z,11.50
2023-02-22T19:52:47.832Z,11.49
2023-02-22T19:55:36.767Z,11.55
2023-02-22T19:58:23.601Z,11.56
2023-02-22T20:01:22.759Z,11.65
2023-02-22T20:04:11.648Z,11.72
2023-02-22T20:07:01.010Z,11.85
2023-02-22T20:09:49.626Z,11.92
2023-02-22T20:12:36.544Z,11.91
2023-02-22T20:15:23.976Z,11.80
2023-02-22T20:18:10.834Z,11.70
2023-02-22T20:20:57.729Z,11.75
2023-02-22T20:23:44.520Z,11.66
2023-02-22T20:26:33.150Z,11.63
2023-02-22T20:29:21.218Z,11.60
2023-02-22T20:32:13.508Z,11.46
2023-02-22T20:35:00.594Z,11.40
2023-02-22T20:37:47.447Z,11.39
